Time;durP1;ratioP1;P1;durP2;ratioP2;P2;SDS_P1;SDS_P2;PMS_P1;PMS_P2;Temp;Humidity;BMP_temperature;BMP_pressure;BME280_temperature;BME280_humidity;BME280_pressure;Samples;Min_cycle;Max_cycle;Signal;HPM_P1;HPM_P2
2022/06/09 00:01:49;;;;;;;24.70;3.10;;;16.30;37.90;;;;;;4989610;28;20480;-70
2022/06/09 00:04:21;;;;;;;27.67;3.33;;;16.30;38.20;;;;;;4990857;28;20574;-67
2022/06/09 00:06:53;;;;;;;26.67;3.53;;;16.20;38.10;;;;;;4992048;28;20460;-66
2022/06/09 00:09:23;;;;;;;28.83;3.87;;;16.10;38.30;;;;;;4992372;28;20449;-67
2022/06/09 00:11:52;;;;;;;25.97;2.87;;;16.10;38.20;;;;;;4990726;28;20499;-67
2022/06/09 00:14:21;;;;;;;27.67;3.23;;;16.10;38.20;;;;;;4990835;28;20480;-67
2022/06/09 00:16:48;;;;;;;42.63;3.60;;;16.10;38.40;;;;;;4991287;28;20813;-67
2022/06/09 00:19:16;;;;;;;25.67;3.40;;;16.00;38.40;;;;;;4991127;28;20958;-67
2022/06/09 00:21:43;;;;;;;27.50;2.80;;;16.00;38.50;;;;;;4989210;28;20464;-67
2022/06/09 00:24:10;;;;;;;25.60;3.50;;;16.00;38.70;;;;;;4990260;28;20484;-67
2022/06/09 00:26:36;;;;;;;25.77;3.07;;;15.90;38.70;;;;;;4991685;28;20461;-68
2022/06/09 00:29:05;;;;;;;27.40;3.33;;;15.90;38.70;;;;;;4991322;28;20464;-67
2022/06/09 00:31:33;;;;;;;27.57;3.37;;;15.80;38.80;;;;;;4990168;28;20484;-67
2022/06/09 00:34:00;;;;;;;24.90;2.80;;;15.80;38.80;;;;;;4971478;28;20486;-66
2022/06/09 00:36:26;;;;;;;27.10;3.20;;;15.80;39.10;;;;;;4972009;28;20457;-66
2022/06/09 00:38:53;;;;;;;24.70;2.50;;;15.80;39.20;;;;;;4972026;28;20948;-67
2022/06/09 00:41:20;;;;;;;28.53;3.43;;;15.70;39.10;;;;;;4971494;28;20462;-68
2022/06/09 00:43:47;;;;;;;25.60;3.20;;;15.70;38.70;;;;;;4986311;28;20516;-67
2022/06/09 00:46:18;;;;;;;25.13;3.50;;;15.70;38.80;;;;;;4991129;28;20999;-67
2022/06/09 00:48:50;;;;;;;26.20;3.57;;;15.70;39.00;;;;;;4991192;28;20452;-67
2022/06/09 00:51:33;;;;;;;26.40;3.03;;;15.70;38.90;;;;;;4991252;28;20460;-66
2022/06/09 00:54:17;;;;;;;26.07;2.77;;;15.80;39.20;;;;;;4988244;28;20485;-67
2022/06/09 00:56:47;;;;;;;25.63;3.30;;;15.70;39.20;;;;;;4991587;28;20449;-67
2022/06/09 00:59:15;;;;;;;27.73;3.20;;;15.80;38.80;;;;;;4990407;28;20465;-67
2022/06/09 01:01:43;;;;;;;26.17;2.80;;;15.80;38.70;;;;;;4989885;28;20484;-67
2022/06/09 01:04:14;;;;;;;25.73;2.70;;;15.80;38.60;;;;;;4988663;28;20496;-67
2022/06/09 01:06:45;;;;;;;27.27;3.57;;;15.80;38.70;;;;;;4990657;28;20464;-70
2022/06/09 01:09:14;;;;;;;28.80;3.00;;;15.80;38.80;;;;;;4990263;28;20472;-66
2022/06/09 01:11:42;;;;;;;27.23;2.90;;;15.80;38.70;;;;;;4989444;28;20457;-66
2022/06/09 01:14:13;;;;;;;27.40;3.50;;;15.80;38.90;;;;;;4988894;28;20485;-66
2022/06/09 01:16:50;;;;;;;28.30;3.50;;;15.80;39.10;;;;;;4988704;28;21053;-66
2022/06/09 01:19:49;;;;;;;25.53;3.00;;;15.90;39.10;;;;;;4990255;28;20471;-67
2022/06/09 01:22:51;;;;;;;28.10;3.00;;;15.80;39.30;;;;;;4989713;28;20445;-67
2022/06/09 01:25:46;;;;;;;27.70;3.17;;;15.80;40.30;;;;;;4964818;28;20480;-66
2022/06/09 01:28:38;;;;;;;26.10;3.17;;;15.80;40.20;;;;;;4987911;28;20465;-67
2022/06/09 01:31:12;;;;;;;26.77;2.80;;;15.80;40.30;;;;;;4989950;28;20476;-66
2022/06/09 01:33:45;;;;;;;26.47;3.17;;;15.70;40.80;;;;;;4989814;28;20787;-66
2022/06/09 01:36:17;;;;;;;26.10;2.90;;;15.70;40.80;;;;;;4990294;28;20518;-66
2022/06/09 01:38:46;;;;;;;26.43;3.77;;;15.70;40.70;;;;;;4989404;28;20468;-67
2022/06/09 01:41:14;;;;;;;26.10;3.07;;;15.70;40.90;;;;;;4989639;28;20469;-68
2022/06/09 01:43:41;;;;;;;25.27;2.97;;;15.70;41.10;;;;;;4989936;28;20484;-67
2022/06/09 01:46:15;;;;;;;24.90;2.53;;;15.70;41.60;;;;;;4989436;28;20492;-67
2022/06/09 01:48:42;;;;;;;24.97;2.83;;;15.70;41.20;;;;;;4989813;28;20449;-67
2022/06/09 01:51:13;;;;;;;25.73;3.43;;;15.70;40.50;;;;;;4988504;28;20491;-67
2022/06/09 01:53:45;;;;;;;29.20;2.80;;;15.70;40.20;;;;;;4989755;28;20477;-67
2022/06/09 01:56:16;;;;;;;26.80;3.60;;;15.70;40.10;;;;;;4988920;28;20461;-67
2022/06/09 01:58:46;;;;;;;25.90;2.70;;;15.70;40.10;;;;;;4989890;28;20461;-67
2022/06/09 02:01:16;;;;;;;25.70;3.27;;;15.70;40.30;;;;;;4987656;28;20472;-67
2022/06/09 02:03:47;;;;;;;26.60;3.00;;;15.70;40.70;;;;;;4988701;28;20488;-67
2022/06/09 02:06:16;;;;;;;30.40;3.43;;;15.70;40.60;;;;;;4986448;28;20996;-67
2022/06/09 02:08:43;;;;;;;25.87;3.00;;;15.70;40.90;;;;;;4986921;28;20468;-67
2022/06/09 02:11:13;;;;;;;26.50;3.47;;;15.70;40.60;;;;;;4987185;28;20471;-66
2022/06/09 02:13:43;;;;;;;26.70;2.90;;;15.70;40.20;;;;;;4987407;28;21000;-67
2022/06/09 02:16:16;;;;;;;25.47;2.67;;;15.70;40.00;;;;;;4988929;28;20463;-67
2022/06/09 02:18:47;;;;;;;26.20;2.90;;;15.70;39.80;;;;;;4989343;28;20477;-66
2022/06/09 02:21:17;;;;;;;26.27;2.97;;;15.60;39.70;;;;;;4988782;28;20464;-67
2022/06/09 02:23:45;;;;;;;29.77;4.00;;;15.60;39.80;;;;;;4987799;28;20488;-67
2022/06/09 02:26:12;;;;;;;27.77;3.03;;;15.60;39.70;;;;;;4988781;28;20484;-66
2022/06/09 02:28:38;;;;;;;25.40;2.70;;;15.60;39.90;;;;;;4988968;28;20475;-66
2022/06/09 02:31:05;;;;;;;32.97;3.50;;;15.50;40.50;;;;;;4988264;28;20476;-66
2022/06/09 02:33:33;;;;;;;28.50;3.47;;;15.50;41.10;;;;;;4988172;28;20488;-67
2022/06/09 02:36:00;;;;;;;26.40;3.40;;;15.50;41.40;;;;;;4988744;28;20830;-67
2022/06/09 02:38:27;;;;;;;27.63;2.97;;;15.50;41.20;;;;;;4989429;28;20464;-67
2022/06/09 02:40:55;;;;;;;26.20;3.20;;;15.50;41.10;;;;;;4988849;28;20464;-67
2022/06/09 02:43:22;;;;;;;28.50;3.33;;;15.50;40.90;;;;;;4988102;28;20833;-67
2022/06/09 02:45:50;;;;;;;27.40;3.27;;;15.50;40.80;;;;;;4988405;28;20477;-66
2022/06/09 02:48:17;;;;;;;31.13;4.13;;;15.50;41.40;;;;;;4988954;28;20848;-66
2022/06/09 02:50:47;;;;;;;26.17;3.50;;;15.50;40.70;;;;;;4988504;28;20515;-67
2022/06/09 02:53:14;;;;;;;25.10;3.43;;;15.60;41.00;;;;;;4988579;28;20520;-67
2022/06/09 02:55:41;;;;;;;26.13;3.00;;;15.60;41.10;;;;;;4988311;28;20465;-66
2022/06/09 02:58:08;;;;;;;26.70;2.90;;;15.60;41.20;;;;;;4988788;28;20468;-67
2022/06/09 03:00:35;;;;;;;26.53;3.03;;;15.60;41.20;;;;;;4988346;28;20552;-67
2022/06/09 03:03:05;;;;;;;28.43;2.80;;;15.60;41.10;;;;;;4988505;28;20805;-66
2022/06/09 03:05:34;;;;;;;27.10;2.50;;;15.60;41.30;;;;;;4987640;28;20493;-67
2022/06/09 03:08:03;;;;;;;27.40;2.80;;;15.60;41.20;;;;;;4989017;28;20461;-66
2022/06/09 03:10:30;;;;;;;25.30;2.53;;;15.60;41.00;;;;;;4989273;28;20468;-67
2022/06/09 03:12:56;;;;;;;25.70;2.30;;;15.60;41.50;;;;;;4988520;28;20485;-67
2022/06/09 03:15:24;;;;;;;25.87;2.50;;;15.60;40.60;;;;;;4987641;28;20471;-66
2022/06/09 03:17:51;;;;;;;25.77;2.50;;;15.70;40.40;;;;;;4989118;28;20468;-66
2022/06/09 03:20:20;;;;;;;27.03;2.80;;;15.60;40.20;;;;;;4989424;28;20461;-67
2022/06/09 03:22:47;;;;;;;28.00;2.53;;;15.60;40.00;;;;;;4987970;28;20580;-68
2022/06/09 03:25:15;;;;;;;26.90;2.87;;;15.60;40.30;;;;;;4986977;28;20544;-67
2022/06/09 03:27:42;;;;;;;26.83;2.40;;;15.50;40.80;;;;;;4988289;28;20456;-67
2022/06/09 03:30:10;;;;;;;25.97;2.47;;;15.50;40.80;;;;;;4988361;28;20464;-67
2022/06/09 03:32:37;;;;;;;25.80;2.37;;;15.50;40.80;;;;;;4987539;28;21016;-67
2022/06/09 03:35:05;;;;;;;26.93;3.00;;;15.50;40.90;;;;;;4990681;28;20460;-66
2022/06/09 03:37:32;;;;;;;26.40;2.83;;;15.40;41.10;;;;;;4992128;28;20460;-67
2022/06/09 03:39:59;;;;;;;31.13;3.07;;;15.40;40.90;;;;;;4992116;28;20464;-68
2022/06/09 03:42:27;;;;;;;26.00;2.27;;;15.40;41.40;;;;;;4989039;28;20477;-60
2022/06/09 03:44:54;;;;;;;29.97;2.70;;;15.30;42.20;;;;;;4990842;28;20459;-61
2022/06/09 03:47:22;;;;;;;27.50;2.53;;;15.30;41.40;;;;;;4992832;28;20472;-61
2022/06/09 03:49:49;;;;;;;26.03;2.97;;;15.30;41.50;;;;;;5004898;28;20463;-60
2022/06/09 03:52:16;;;;;;;26.07;2.30;;;15.30;41.50;;;;;;4988845;28;20475;-60
2022/06/09 03:54:42;;;;;;;26.87;3.00;;;15.30;41.40;;;;;;4993579;28;20976;-60
2022/06/09 03:57:10;;;;;;;27.60;2.70;;;15.30;41.50;;;;;;4988911;28;20465;-60
2022/06/09 03:59:38;;;;;;;27.30;4.43;;;15.30;41.40;;;;;;4991401;28;20456;-60
2022/06/09 04:02:05;;;;;;;27.17;2.70;;;15.20;41.30;;;;;;4987988;28;21197;-60
2022/06/09 04:04:32;;;;;;;26.40;2.70;;;15.20;41.60;;;;;;4990836;28;20473;-61
2022/06/09 04:06:59;;;;;;;26.00;2.53;;;15.20;41.40;;;;;;4988824;28;20503;-60
2022/06/09 04:09:26;;;;;;;27.70;2.50;;;15.20;41.50;;;;;;4990466;28;20469;-69
2022/06/09 04:11:53;;;;;;;26.97;3.10;;;15.20;41.80;;;;;;4990862;28;20469;-69
2022/06/09 04:14:20;;;;;;;28.30;2.63;;;15.10;41.80;;;;;;4989171;28;20480;-68
2022/06/09 04:16:48;;;;;;;27.00;2.47;;;15.20;41.60;;;;;;4991406;28;20457;-68
2022/06/09 04:19:16;;;;;;;26.40;2.17;;;15.10;41.80;;;;;;4990321;28;20461;-68
2022/06/09 04:21:44;;;;;;;26.40;2.50;;;15.10;41.70;;;;;;4991055;28;20460;-69
2022/06/09 04:24:10;;;;;;;26.37;2.53;;;15.10;41.70;;;;;;4989027;28;21035;-69
2022/06/09 04:26:39;;;;;;;25.63;2.10;;;15.10;41.90;;;;;;4990597;28;21043;-69
2022/06/09 04:29:08;;;;;;;27.57;2.60;;;15.20;41.90;;;;;;4990856;28;20468;-69
2022/06/09 04:31:36;;;;;;;25.80;2.30;;;15.20;41.90;;;;;;4990800;28;20502;-68
2022/06/09 04:34:04;;;;;;;29.10;2.60;;;15.20;41.70;;;;;;4989588;28;20481;-69
2022/06/09 04:36:31;;;;;;;25.70;2.63;;;15.30;41.90;;;;;;4990682;28;20905;-68
2022/06/09 04:38:58;;;;;;;25.77;2.37;;;15.30;41.60;;;;;;4990958;28;20499;-69
2022/06/09 04:41:25;;;;;;;26.17;2.80;;;15.30;41.90;;;;;;4990583;28;20830;-72
2022/06/09 04:43:52;;;;;;;27.50;3.20;;;15.40;42.00;;;;;;4989848;28;20693;-68
2022/06/09 04:46:20;;;;;;;26.00;2.73;;;15.40;41.80;;;;;;4990364;28;20481;-68
2022/06/09 04:48:47;;;;;;;27.27;3.00;;;15.50;41.60;;;;;;4990556;28;20484;-69
2022/06/09 04:51:17;;;;;;;27.00;2.43;;;15.50;41.10;;;;;;4990183;28;20460;-68
2022/06/09 04:53:44;;;;;;;26.17;2.73;;;15.60;40.70;;;;;;4989547;28;20776;-68
2022/06/09 04:56:11;;;;;;;29.57;3.00;;;15.60;40.50;;;;;;4990309;28;20457;-68
2022/06/09 04:58:39;;;;;;;25.50;2.23;;;15.70;40.30;;;;;;4990653;28;20465;-68
2022/06/09 05:01:06;;;;;;;25.87;2.20;;;15.80;40.30;;;;;;4989892;28;20565;-68
2022/06/09 05:03:33;;;;;;;25.90;2.30;;;15.90;39.80;;;;;;4990142;28;20488;-68
2022/06/09 05:06:00;;;;;;;25.90;2.03;;;16.00;39.40;;;;;;4989634;28;20492;-68
2022/06/09 05:08:28;;;;;;;26.70;2.27;;;16.00;39.00;;;;;;4990437;28;20465;-68
2022/06/09 05:10:55;;;;;;;26.37;2.37;;;16.10;38.60;;;;;;4990310;28;20846;-68
2022/06/09 05:13:22;;;;;;;26.70;1.90;;;16.20;38.30;;;;;;4989662;28;20476;-68
2022/06/09 05:15:52;;;;;;;27.80;2.37;;;16.20;38.00;;;;;;4988778;28;20469;-68
2022/06/09 05:18:21;;;;;;;26.70;2.10;;;16.30;37.70;;;;;;4989852;28;20445;-68
2022/06/09 05:20:50;;;;;;;30.80;2.60;;;16.30;37.50;;;;;;4989950;28;20519;-68
2022/06/09 05:23:18;;;;;;;29.87;2.40;;;16.30;37.20;;;;;;4988937;28;21012;-68
2022/06/09 05:25:46;;;;;;;27.73;2.57;;;16.40;36.90;;;;;;4988348;28;20724;-71
2022/06/09 05:28:13;;;;;;;27.00;2.47;;;16.40;36.70;;;;;;4982515;28;20464;-68
2022/06/09 05:30:40;;;;;;;27.80;2.93;;;16.40;36.70;;;;;;4976486;28;20465;-68
2022/06/09 05:33:07;;;;;;;27.80;2.80;;;16.40;36.60;;;;;;4979749;28;20489;-68
2022/06/09 05:35:37;;;;;;;27.50;2.43;;;16.40;36.50;;;;;;4985493;28;20825;-68
2022/06/09 05:46:32;;;;;;;28.10;2.80;;;16.40;36.30;;;;;;4987597;28;20836;-68
2022/06/09 05:48:59;;;;;;;26.87;2.60;;;16.40;36.00;;;;;;4988698;28;20460;-69
2022/06/09 05:51:26;;;;;;;29.40;3.00;;;16.40;35.90;;;;;;4988779;28;20460;-68
2022/06/09 05:53:53;;;;;;;26.70;2.60;;;16.40;35.90;;;;;;4989337;28;20481;-68
2022/06/09 05:56:21;;;;;;;27.07;2.53;;;16.40;36.10;;;;;;4988157;28;20470;-71
2022/06/09 05:58:48;;;;;;;29.03;2.83;;;16.40;36.10;;;;;;4989507;28;20855;-68
2022/06/09 06:01:16;;;;;;;28.93;3.10;;;16.50;36.00;;;;;;4988572;28;20480;-68
2022/06/09 06:03:43;;;;;;;28.83;2.90;;;16.60;36.20;;;;;;4989100;28;20503;-68
2022/06/09 06:08:54;;;;;;;27.57;2.50;;;16.60;36.20;;;;;;4989781;28;20824;-68
2022/06/09 06:11:23;;;;;;;28.00;2.50;;;16.60;36.10;;;;;;4988965;28;21029;-68
2022/06/09 06:13:50;;;;;;;29.30;2.70;;;16.70;36.00;;;;;;4988878;28;20477;-68
2022/06/09 06:16:17;;;;;;;32.87;2.50;;;16.70;35.90;;;;;;4988985;28;20460;-68
2022/06/09 06:18:44;;;;;;;29.53;2.93;;;16.80;35.40;;;;;;4988003;28;20464;-68
2022/06/09 06:21:10;;;;;;;27.90;2.40;;;16.80;35.10;;;;;;4987611;28;20472;-68
2022/06/09 06:23:40;;;;;;;26.30;2.17;;;16.90;34.90;;;;;;4988591;28;20480;-69
2022/06/09 06:26:07;;;;;;;28.87;2.70;;;16.90;34.80;;;;;;4988320;28;20953;-68
2022/06/09 06:28:35;;;;;;;29.43;3.07;;;16.90;34.80;;;;;;4989120;28;20464;-68
2022/06/09 06:31:02;;;;;;;28.57;2.47;;;16.80;34.80;;;;;;4986929;28;20481;-69
2022/06/09 06:33:28;;;;;;;28.00;2.73;;;16.80;34.70;;;;;;4988898;28;20481;-68
2022/06/09 06:35:55;;;;;;;28.77;2.70;;;16.80;34.60;;;;;;4988361;28;20464;-68
2022/06/09 06:38:23;;;;;;;26.63;2.50;;;16.80;34.60;;;;;;4989349;28;20461;-68
2022/06/09 06:40:50;;;;;;;25.90;2.27;;;16.70;34.80;;;;;;4987667;28;20473;-68
2022/06/09 06:43:17;;;;;;;26.10;2.60;;;16.70;35.00;;;;;;4988367;28;20492;-69
2022/06/09 06:45:45;;;;;;;26.87;2.63;;;16.60;35.20;;;;;;4988335;28;20472;-69
2022/06/09 06:48:11;;;;;;;29.33;2.97;;;16.50;35.80;;;;;;4989123;28;20488;-69
2022/06/09 06:50:38;;;;;;;27.57;2.97;;;16.50;36.30;;;;;;4987717;28;20871;-69
2022/06/09 06:53:06;;;;;;;28.93;2.70;;;16.50;36.60;;;;;;4988655;28;20492;-69
2022/06/09 06:55:32;;;;;;;26.50;2.87;;;16.50;36.50;;;;;;4988532;28;20492;-68
2022/06/09 06:57:59;;;;;;;25.10;2.70;;;16.50;36.70;;;;;;4988635;28;20461;-68
2022/06/09 07:00:27;;;;;;;27.20;3.10;;;16.60;37.00;;;;;;4986916;28;20460;-71
2022/06/09 07:02:55;;;;;;;25.07;2.77;;;16.70;37.20;;;;;;4968686;28;20478;-69
2022/06/09 07:05:23;;;;;;;27.47;2.47;;;16.80;37.70;;;;;;4969029;28;20461;-71
2022/06/09 07:07:50;;;;;;;28.83;2.27;;;16.90;36.30;;;;;;4970827;28;20496;-69
2022/06/09 07:10:18;;;;;;;32.43;2.90;;;17.10;35.10;;;;;;4973205;28;20488;-68
2022/06/09 07:12:45;;;;;;;27.93;2.70;;;17.40;34.90;;;;;;4987738;28;20528;-68
2022/06/09 07:15:13;;;;;;;38.33;3.00;;;17.80;34.40;;;;;;4992826;28;20464;-69
2022/06/09 07:17:40;;;;;;;30.17;2.90;;;18.30;33.70;;;;;;4991924;28;20976;-69
2022/06/09 07:20:12;;;;;;;29.40;2.50;;;18.90;31.80;;;;;;4993083;28;20623;-69
2022/06/09 07:22:39;;;;;;;26.70;2.20;;;20.60;29.90;;;;;;4990866;28;20579;-69
2022/06/09 07:25:07;;;;;;;28.97;2.30;;;22.90;24.00;;;;;;4991580;28;20448;-69
2022/06/09 07:27:34;;;;;;;28.53;2.10;;;26.30;15.60;;;;;;4991905;28;20495;-69
2022/06/09 07:30:01;;;;;;;26.50;1.73;;;30.30;9.80;;;;;;4992269;28;20460;-68
2022/06/09 07:32:28;;;;;;;27.10;2.00;;;33.50;4.90;;;;;;4990769;28;20495;-69
2022/06/09 07:34:54;;;;;;;25.50;1.97;;;36.40;1.00;;;;;;4991463;28;20467;-68
2022/06/09 07:37:22;;;;;;;25.10;1.57;;;37.60;1.00;;;;;;4991861;28;20459;-69
2022/06/09 07:39:49;;;;;;;25.50;2.27;;;36.70;1.00;;;;;;4991441;28;20841;-69
2022/06/09 07:42:16;;;;;;;26.37;1.80;;;35.50;1.00;;;;;;4991115;28;20818;-69
2022/06/09 07:44:43;;;;;;;24.83;1.50;;;35.70;1.00;;;;;;4991060;28;21087;-69
2022/06/09 07:47:10;;;;;;;25.50;1.50;;;34.80;1.00;;;;;;4991742;28;20805;-69
2022/06/09 07:49:37;;;;;;;25.80;1.50;;;33.80;1.00;;;;;;4991509;28;20457;-69
2022/06/09 07:52:04;;;;;;;25.40;1.40;;;32.90;1.00;;;;;;4991411;28;20467;-69
2022/06/09 07:54:32;;;;;;;26.50;1.73;;;32.30;1.00;;;;;;4990280;28;20468;-69
2022/06/09 07:56:59;;;;;;;25.83;1.70;;;31.40;1.00;;;;;;4991796;28;20461;-69
2022/06/09 07:59:26;;;;;;;27.30;1.90;;;31.10;2.10;;;;;;4991149;28;20979;-69
2022/06/09 08:01:53;;;;;;;24.57;1.60;;;31.80;1.30;;;;;;4991172;28;20473;-69
2022/06/09 08:04:19;;;;;;;25.10;1.60;;;33.50;1.00;;;;;;4990689;28;20484;-69
2022/06/09 08:06:46;;;;;;;25.50;1.40;;;33.90;1.00;;;;;;4991134;28;20557;-69
2022/06/09 08:09:13;;;;;;;26.63;1.80;;;33.00;1.00;;;;;;4991185;28;20460;-69
2022/06/09 08:11:41;;;;;;;25.97;1.80;;;32.10;1.00;;;;;;4991091;28;20464;-69
2022/06/09 08:14:09;;;;;;;25.60;1.50;;;32.70;1.00;;;;;;4990352;28;20489;-69
2022/06/09 08:16:36;;;;;;;25.87;1.97;;;33.90;1.00;;;;;;4990339;28;20965;-71
2022/06/09 08:19:03;;;;;;;24.00;1.30;;;36.70;1.00;;;;;;4990686;28;20467;-69
2022/06/09 08:21:31;;;;;;;24.60;1.57;;;39.70;1.00;;;;;;4990895;28;20461;-69
2022/06/09 08:23:59;;;;;;;23.87;1.50;;;41.80;1.00;;;;;;4989806;28;20500;-69
2022/06/09 08:26:26;;;;;;;23.30;1.80;;;43.70;1.00;;;;;;4990446;28;20468;-69
2022/06/09 08:28:54;;;;;;;23.30;1.30;;;45.10;1.00;;;;;;4990881;28;20464;-69
2022/06/09 08:31:21;;;;;;;21.87;1.60;;;46.40;1.00;;;;;;4990094;28;20481;-69
2022/06/09 08:33:48;;;;;;;21.70;1.30;;;45.50;1.00;;;;;;4991245;28;20480;-69
2022/06/09 08:36:15;;;;;;;21.80;1.67;;;45.00;1.00;;;;;;4990015;28;20461;-69
2022/06/09 08:38:42;;;;;;;21.70;1.40;;;45.70;1.00;;;;;;4990708;28;20465;-69
2022/06/09 08:41:27;;;;;;;21.57;1.50;;;44.80;1.00;;;;;;4990642;28;20614;-69
2022/06/09 08:44:09;;;;;;;22.70;1.40;;;41.60;1.00;;;;;;4991436;28;20863;-70
2022/06/09 08:46:45;;;;;;;23.00;1.70;;;38.50;1.00;;;;;;4989406;28;20465;-69
2022/06/09 08:49:28;;;;;;;24.47;1.57;;;37.60;1.00;;;;;;4991162;28;20456;-69
2022/06/09 08:51:59;;;;;;;23.97;1.60;;;37.00;1.00;;;;;;4990047;28;20520;-69
2022/06/09 08:54:30;;;;;;;23.30;1.50;;;36.00;1.00;;;;;;4990612;28;20484;-69
2022/06/09 08:57:01;;;;;;;22.93;1.50;;;38.10;1.00;;;;;;4989234;28;20957;-69
2022/06/09 08:59:36;;;;;;;23.13;1.20;;;40.70;1.00;;;;;;4991466;28;20515;-69
2022/06/09 09:02:13;;;;;;;22.40;1.20;;;43.00;1.00;;;;;;4989492;28;20472;-69
2022/06/09 09:04:45;;;;;;;22.77;1.17;;;43.50;1.00;;;;;;4990231;28;20440;-69
2022/06/09 09:07:16;;;;;;;22.87;1.40;;;40.60;1.00;;;;;;4989035;28;20509;-69
2022/06/09 09:09:45;;;;;;;22.63;1.50;;;37.90;1.00;;;;;;4990109;28;20467;-69
2022/06/09 09:12:21;;;;;;;24.30;1.50;;;35.50;1.00;;;;;;4990315;28;20479;-69
2022/06/09 09:14:56;;;;;;;24.47;1.83;;;33.60;1.00;;;;;;4989875;28;20449;-69
2022/06/09 09:17:29;;;;;;;24.50;1.60;;;32.90;1.00;;;;;;4989517;28;20461;-69
2022/06/09 09:20:05;;;;;;;24.80;1.60;;;35.10;1.00;;;;;;4990832;28;20452;-69
2022/06/09 09:22:42;;;;;;;27.33;1.73;;;36.70;1.00;;;;;;4990483;28;20488;-69
2022/06/09 09:25:21;;;;;;;24.20;1.60;;;36.60;1.00;;;;;;4990318;28;20457;-69
2022/06/09 09:27:50;;;;;;;23.80;1.47;;;36.10;1.00;;;;;;4989002;28;20479;-69
2022/06/09 09:30:22;;;;;;;24.23;1.70;;;35.40;1.00;;;;;;4988566;28;20464;-69
2022/06/09 09:32:53;;;;;;;23.80;1.70;;;34.90;1.00;;;;;;4989087;28;20491;-69
2022/06/09 09:35:22;;;;;;;23.57;1.33;;;34.20;1.00;;;;;;4989262;28;20449;-69
2022/06/09 09:37:52;;;;;;;25.00;1.67;;;33.50;1.00;;;;;;4988955;28;20981;-69
2022/06/09 09:40:25;;;;;;;24.17;1.40;;;32.90;1.00;;;;;;4990097;28;20759;-69
2022/06/09 09:42:55;;;;;;;24.97;1.73;;;32.30;1.00;;;;;;4989495;28;20912;-69
2022/06/09 09:45:32;;;;;;;24.67;1.43;;;31.40;1.00;;;;;;4989752;28;20457;-69
2022/06/09 09:48:01;;;;;;;25.87;1.80;;;30.30;1.00;;;;;;4988795;28;20754;-69
2022/06/09 09:50:37;;;;;;;24.70;1.50;;;29.70;1.00;;;;;;4989620;28;20471;-69
2022/06/09 09:53:06;;;;;;;26.50;1.80;;;29.20;1.00;;;;;;4989932;28;20480;-69
2022/06/09 09:55:37;;;;;;;27.27;1.60;;;28.80;1.60;;;;;;4989530;28;20467;-69
2022/06/09 09:58:30;;;;;;;27.67;1.80;;;28.60;2.00;;;;;;4988299;28;20461;-69
2022/06/09 10:01:00;;;;;;;25.73;1.60;;;28.40;1.90;;;;;;4988985;28;20555;-69
2022/06/09 10:09:17;;;;;;;25.10;1.60;;;27.30;2.00;;;;;;4988197;28;20516;-69
2022/06/09 10:11:58;;;;;;;26.20;1.70;;;26.70;3.80;;;;;;4988301;28;20484;-69
2022/06/09 10:14:32;;;;;;;26.40;1.57;;;26.20;3.80;;;;;;4989382;28;20875;-69
2022/06/09 10:17:03;;;;;;;26.53;1.80;;;25.80;4.00;;;;;;4988611;28;20487;-69
2022/06/09 10:19:34;;;;;;;28.53;1.90;;;25.50;6.00;;;;;;4988007;28;20972;-69
2022/06/09 10:22:03;;;;;;;27.37;1.80;;;25.50;5.10;;;;;;4989053;28;20460;-69
2022/06/09 10:24:44;;;;;;;26.13;1.70;;;25.80;5.50;;;;;;4988852;28;20965;-69
2022/06/09 10:27:14;;;;;;;25.57;1.50;;;26.10;4.40;;;;;;4988908;28;20456;-69
2022/06/09 10:29:47;;;;;;;25.10;1.40;;;26.30;4.00;;;;;;4987888;28;20867;-69
2022/06/09 10:32:23;;;;;;;27.67;2.10;;;26.50;4.80;;;;;;4988111;28;20496;-69
2022/06/09 10:34:59;;;;;;;28.70;1.90;;;26.40;4.50;;;;;;4988725;28;20456;-69
2022/06/09 10:37:41;;;;;;;27.80;1.93;;;26.10;4.10;;;;;;4988635;28;20827;-69
2022/06/09 10:40:14;;;;;;;26.10;1.70;;;25.90;2.50;;;;;;4988258;28;20465;-69
2022/06/09 10:42:50;;;;;;;25.73;1.90;;;25.50;4.60;;;;;;4988476;28;20511;-69
2022/06/09 10:45:20;;;;;;;25.63;1.77;;;25.20;5.40;;;;;;4989325;28;20609;-69
2022/06/09 10:56:35;;;;;;;28.23;1.70;;;24.80;4.80;;;;;;4988786;28;20925;-69
2022/06/09 10:59:08;;;;;;;25.97;1.70;;;24.60;6.00;;;;;;4989196;28;20460;-69
2022/06/09 11:01:36;;;;;;;26.00;1.60;;;24.20;6.20;;;;;;4987061;28;20472;-69
2022/06/09 11:04:11;;;;;;;26.30;1.70;;;23.90;7.40;;;;;;4988649;28;20485;-69
2022/06/09 11:06:57;;;;;;;25.97;1.67;;;23.70;8.70;;;;;;4989049;28;20444;-69
2022/06/09 11:09:33;;;;;;;26.00;1.90;;;23.70;9.90;;;;;;4988268;28;20484;-69
2022/06/09 11:12:14;;;;;;;29.80;2.50;;;23.90;9.60;;;;;;4987841;28;20555;-69
2022/06/09 11:14:55;;;;;;;27.80;2.10;;;24.00;9.10;;;;;;4988317;28;20523;-69
2022/06/09 11:17:44;;;;;;;26.50;1.90;;;24.00;9.50;;;;;;4988557;28;20464;-69
2022/06/09 11:20:23;;;;;;;27.60;2.40;;;24.10;9.20;;;;;;4987760;28;20596;-69
2022/06/09 11:23:00;;;;;;;29.10;2.30;;;24.20;9.60;;;;;;4987986;28;20488;-69
2022/06/09 11:25:45;;;;;;;26.30;1.63;;;24.40;9.10;;;;;;4988415;28;20965;-72
2022/06/09 11:28:40;;;;;;;26.80;2.37;;;24.70;9.00;;;;;;4989067;28;20495;-69
2022/06/09 11:31:47;;;;;;;28.33;2.57;;;24.60;8.60;;;;;;4987768;28;20503;-71
2022/06/09 11:34:58;;;;;;;30.37;2.70;;;24.40;8.50;;;;;;4988236;28;21032;-69
2022/06/09 11:37:50;;;;;;;26.87;2.17;;;24.30;8.90;;;;;;4979487;28;20461;-69
2022/06/09 11:40:30;;;;;;;27.67;2.40;;;24.30;9.60;;;;;;4987937;28;20650;-69
2022/06/09 11:43:13;;;;;;;26.43;2.53;;;24.50;9.80;;;;;;4986907;28;20484;-69
2022/06/09 11:45:44;;;;;;;26.27;2.27;;;24.70;8.70;;;;;;4988353;28;20463;-69
2022/06/09 11:48:19;;;;;;;29.63;2.23;;;24.80;8.60;;;;;;4987929;28;20488;-69
2022/06/09 11:50:47;;;;;;;26.57;2.40;;;24.90;8.40;;;;;;4988055;28;20453;-69
2022/06/09 11:53:20;;;;;;;28.10;2.20;;;24.90;7.70;;;;;;4986854;28;21033;-69
2022/06/09 11:56:00;;;;;;;25.83;1.60;;;24.80;7.20;;;;;;4991363;28;20453;-71
2022/06/09 11:58:48;;;;;;;27.70;2.03;;;24.80;6.70;;;;;;4991819;28;20441;-69
2022/06/09 12:01:45;;;;;;;26.60;1.83;;;24.70;6.00;;;;;;4990258;28;21074;-69
2022/06/09 12:04:27;;;;;;;26.23;1.60;;;24.50;5.80;;;;;;4970863;28;20491;-69
2022/06/09 12:07:14;;;;;;;27.60;1.73;;;24.30;5.80;;;;;;4991203;28;20804;-69
2022/06/09 12:09:56;;;;;;;26.97;2.00;;;24.30;5.90;;;;;;4991379;28;20488;-69
2022/06/09 12:12:32;;;;;;;28.70;1.87;;;24.40;6.50;;;;;;4989860;28;20595;-69
2022/06/09 12:15:26;;;;;;;26.17;1.70;;;24.40;6.60;;;;;;4991318;28;20921;-69
2022/06/09 12:17:58;;;;;;;27.57;1.70;;;24.50;6.60;;;;;;4991427;28;20912;-69
2022/06/09 12:20:34;;;;;;;26.07;1.90;;;24.50;7.00;;;;;;4991169;28;20437;-69
2022/06/09 12:23:26;;;;;;;26.10;1.63;;;24.40;7.20;;;;;;4989157;28;21151;-69
2022/06/09 12:26:26;;;;;;;26.77;1.63;;;24.20;6.20;;;;;;4966654;28;20469;-69
2022/06/09 12:29:16;;;;;;;28.20;2.00;;;24.00;6.00;;;;;;4989598;28;20482;-69
2022/06/09 12:32:29;;;;;;;30.20;2.10;;;23.90;6.30;;;;;;4990561;28;20612;-69
2022/06/09 12:34:57;;;;;;;27.00;1.90;;;23.70;7.80;;;;;;4991003;28;20449;-69
2022/06/09 12:37:29;;;;;;;28.00;1.90;;;23.50;8.80;;;;;;4989659;28;20961;-69
2022/06/09 12:40:00;;;;;;;30.07;2.10;;;23.30;8.00;;;;;;4990920;28;20472;-69
2022/06/09 12:42:38;;;;;;;28.30;1.93;;;23.10;7.70;;;;;;4990965;28;20476;-69
2022/06/09 12:45:12;;;;;;;26.83;1.70;;;23.00;7.60;;;;;;4990712;28;20857;-69
2022/06/09 12:47:52;;;;;;;29.37;2.80;;;22.80;7.60;;;;;;4990208;28;20441;-69
2022/06/09 12:50:33;;;;;;;29.90;1.70;;;22.80;7.60;;;;;;4990722;28;20838;-69
2022/06/09 12:53:04;;;;;;;26.20;1.80;;;22.80;8.30;;;;;;4990678;28;20484;-69
2022/06/09 12:55:34;;;;;;;26.57;2.00;;;22.90;8.60;;;;;;4990218;28;20452;-69
2022/06/09 12:58:14;;;;;;;26.40;2.40;;;23.10;7.90;;;;;;4989696;28;20471;-69
2022/06/09 13:00:46;;;;;;;29.50;1.90;;;23.10;8.30;;;;;;4990179;28;20643;-69
2022/06/09 13:03:29;;;;;;;27.70;1.60;;;23.10;8.90;;;;;;4990515;28;20480;-69
2022/06/09 13:05:56;;;;;;;29.83;1.60;;;23.10;8.30;;;;;;4990223;28;20523;-69
2022/06/09 13:08:25;;;;;;;26.57;1.97;;;23.10;8.20;;;;;;4989426;28;20484;-69
2022/06/09 13:10:58;;;;;;;27.57;2.10;;;23.10;7.60;;;;;;4990215;28;20465;-69
2022/06/09 13:13:30;;;;;;;29.93;1.93;;;23.00;7.00;;;;;;4990889;28;20468;-69
2022/06/09 13:16:00;;;;;;;28.30;2.47;;;23.00;7.70;;;;;;4990289;28;20457;-69
2022/06/09 13:18:32;;;;;;;27.30;2.03;;;23.00;6.30;;;;;;4989616;28;20511;-69
2022/06/09 13:21:02;;;;;;;26.30;1.40;;;22.90;7.00;;;;;;4989748;28;20465;-69
2022/06/09 13:23:31;;;;;;;26.27;1.60;;;22.90;7.20;;;;;;4989218;28;20524;-69
2022/06/09 13:25:59;;;;;;;27.20;1.70;;;22.90;8.10;;;;;;4989769;28;20461;-69
2022/06/09 13:28:37;;;;;;;26.93;1.50;;;22.80;7.40;;;;;;4989602;28;20488;-69